Time;durP1;ratioP1;P1;durP2;ratioP2;P2;SDS_P1;SDS_P2;PMS_P1;PMS_P2;Temp;Humidity;BMP_temperature;BMP_pressure;BME280_temperature;BME280_humidity;BME280_pressure;Samples;Min_cycle;Max_cycle;Signal;HPM_P1;HPM_P2
2020/12/26 00:01:42;;;;;;;7.55;4.60;;;;;;;2.68;69.66;100086.91;118354;1147;104599;-71
2020/12/26 00:04:10;;;;;;;11.60;7.30;;;;;;;2.67;70.38;100095.74;118468;1147;104609;-69
2020/12/26 00:06:38;;;;;;;7.13;4.27;;;;;;;2.62;70.74;100093.44;118771;1147;104508;-69
2020/12/26 00:09:07;;;;;;;9.67;5.33;;;;;;;2.57;70.64;100095.53;118871;1147;104918;-70
2020/12/26 00:11:36;;;;;;;6.50;3.80;;;;;;;2.54;69.73;100101.00;118910;1145;104453;-70
2020/12/26 00:14:04;;;;;;;6.70;4.00;;;;;;;2.51;70.37;100102.06;118904;1148;104521;-70
2020/12/26 00:16:32;;;;;;;5.97;3.67;;;;;;;2.51;71.12;100101.23;118835;1147;104569;-69
2020/12/26 00:19:00;;;;;;;6.80;4.50;;;;;;;2.52;71.23;100108.16;118785;1148;105663;-70
2020/12/26 00:21:29;;;;;;;6.50;3.67;;;;;;;2.48;71.15;100099.66;119079;1147;104479;-69
2020/12/26 00:23:57;;;;;;;7.77;3.67;;;;;;;2.51;70.33;100086.27;118909;1148;104578;-71
2020/12/26 00:26:25;;;;;;;5.90;3.57;;;;;;;2.51;70.28;100093.33;118869;1147;105001;-69
2020/12/26 00:28:53;;;;;;;6.00;3.50;;;;;;;2.52;70.27;100103.77;118842;1147;104607;-69
2020/12/26 00:31:21;;;;;;;5.80;3.80;;;;;;;2.51;70.35;100101.23;118847;1147;104549;-71
2020/12/26 00:33:49;;;;;;;7.10;3.73;;;;;;;2.50;69.94;100095.13;118861;1148;104639;-69
2020/12/26 00:36:17;;;;;;;6.60;3.60;;;;;;;2.51;70.27;100106.50;118849;1147;104550;-71
2020/12/26 00:38:46;;;;;;;6.77;3.30;;;;;;;2.48;69.55;100106.70;118344;1148;104569;-70
2020/12/26 00:41:14;;;;;;;6.40;3.40;;;;;;;2.43;69.89;100100.92;118334;1147;104473;-71
2020/12/26 00:43:43;;;;;;;6.97;3.57;;;;;;;2.47;69.81;100111.13;118708;1147;104855;-69
2020/12/26 00:46:12;;;;;;;5.90;3.40;;;;;;;2.47;70.40;100105.03;118660;1148;104562;-69
2020/12/26 00:48:40;;;;;;;6.23;3.53;;;;;;;2.44;70.58;100115.76;118464;1148;104566;-71
2020/12/26 00:51:12;;;;;;;5.25;3.55;;;;;;;2.43;70.26;100114.09;118458;1147;104528;-69
2020/12/26 00:53:41;;;;;;;6.73;3.37;;;;;;;2.43;69.93;100112.29;118097;1147;104514;-69
2020/12/26 00:56:09;;;;;;;6.13;3.57;;;;;;;2.44;71.12;100115.76;118323;1147;104476;-69
2020/12/26 00:58:37;;;;;;;6.87;3.70;;;;;;;2.41;69.50;100113.35;118344;1148;104476;-68
2020/12/26 01:01:06;;;;;;;7.93;4.60;;;;;;;2.39;70.50;100112.59;118821;1145;104895;-71
2020/12/26 01:03:57;;;;;;;8.35;4.03;;;;;;;2.40;69.68;100109.02;118685;1147;104495;-71
2020/12/26 01:06:25;;;;;;;8.00;5.00;;;;;;;2.39;70.18;100112.59;118707;1148;104476;-71
2020/12/26 01:08:53;;;;;;;6.75;3.45;;;;;;;2.35;70.26;100112.81;118595;1147;104504;-70
2020/12/26 01:11:22;;;;;;;5.63;3.20;;;;;;;2.33;70.23;100122.61;118657;1147;104598;-69
2020/12/26 01:13:50;;;;;;;10.80;6.03;;;;;;;2.29;69.45;100105.33;118616;1147;104565;-69
2020/12/26 01:16:18;;;;;;;9.17;5.30;;;;;;;2.23;70.29;100113.62;118790;1147;104543;-69
2020/12/26 01:18:46;;;;;;;10.90;7.20;;;;;;;2.15;69.40;100121.20;118826;1147;104476;-69
2020/12/26 01:21:17;;;;;;;7.70;4.50;;;;;;;2.10;70.23;100123.31;118834;1147;104959;-69
2020/12/26 01:23:45;;;;;;;7.27;3.80;;;;;;;2.03;69.90;100122.86;118605;1147;104456;-69
2020/12/26 01:26:15;;;;;;;5.67;3.37;;;;;;;1.94;70.88;100116.44;118645;1147;104949;-69
2020/12/26 01:28:45;;;;;;;6.10;3.17;;;;;;;1.85;70.74;100114.41;118586;1148;104521;-69
2020/12/26 01:31:14;;;;;;;6.20;3.40;;;;;;;1.78;70.78;100109.64;118730;1147;104556;-73
2020/12/26 01:33:42;;;;;;;4.47;2.80;;;;;;;1.70;70.48;100104.88;118548;1147;104537;-69
2020/12/26 01:36:12;;;;;;;4.90;2.80;;;;;;;1.67;70.30;100105.07;118748;1147;104548;-71
2020/12/26 01:38:41;;;;;;;3.47;2.50;;;;;;;1.63;70.49;100108.84;118381;1147;104585;-69
2020/12/26 01:41:09;;;;;;;5.07;3.00;;;;;;;1.60;71.08;100109.03;118345;1147;104572;-69
2020/12/26 01:43:37;;;;;;;4.40;2.90;;;;;;;1.57;70.72;100110.92;118744;1147;104554;-69
2020/12/26 01:46:05;;;;;;;5.43;3.23;;;;;;;1.52;70.75;100107.77;118844;1148;104527;-70
2020/12/26 01:48:33;;;;;;;6.17;3.63;;;;;;;1.48;70.43;100108.04;118639;1147;104478;-69
2020/12/26 01:51:02;;;;;;;5.60;3.70;;;;;;;1.48;71.41;100116.80;118385;1148;104553;-69
2020/12/26 01:53:30;;;;;;;7.85;4.25;;;;;;;1.48;71.30;100116.80;118552;1147;104861;-70
2020/12/26 01:55:58;;;;;;;6.13;4.33;;;;;;;1.49;70.79;100113.21;118392;1147;104473;-70
2020/12/26 01:58:27;;;;;;;5.83;3.43;;;;;;;1.50;71.14;100108.78;118542;1147;104551;-69
2020/12/26 02:00:55;;;;;;;6.40;4.40;;;;;;;1.51;70.67;100103.44;118346;1147;104508;-70
2020/12/26 02:03:23;;;;;;;5.40;3.97;;;;;;;1.52;70.24;100118.28;118396;1148;104545;-69
2020/12/26 02:05:54;;;;;;;7.60;4.90;;;;;;;1.53;70.27;100114.69;118363;1148;104464;-70
2020/12/26 02:08:22;;;;;;;6.60;3.70;;;;;;;1.51;70.52;100121.84;118766;1147;104556;-69
2020/12/26 02:10:50;;;;;;;6.70;4.10;;;;;;;1.55;70.35;100128.59;118527;1146;104556;-69
2020/12/26 02:13:19;;;;;;;6.77;3.50;;;;;;;1.60;71.57;100130.07;118829;1148;104565;-69
2020/12/26 02:16:01;;;;;;;5.40;3.60;;;;;;;1.64;71.07;100128.96;118541;1147;104553;-69
2020/12/26 02:18:28;;;;;;;;;;;;;;;1.64;70.78;100123.70;118495;1147;104476;-70
2020/12/26 02:20:56;;;;;;;5.75;3.52;;;;;;;1.67;71.13;100123.48;118252;1148;104549;-71
2020/12/26 02:23:25;;;;;;;4.83;3.03;;;;;;;1.71;69.85;100128.47;118683;1147;104603;-70
2020/12/26 02:25:54;;;;;;;5.40;3.30;;;;;;;1.75;70.87;100131.71;118950;1147;104502;-69
2020/12/26 02:28:23;;;;;;;5.97;3.27;;;;;;;1.79;71.05;100135.86;118302;1147;104500;-69
2020/12/26 02:30:51;;;;;;;5.60;3.30;;;;;;;1.85;71.22;100127.56;118447;1147;104493;-69
2020/12/26 02:33:20;;;;;;;9.90;5.10;;;;;;;1.87;70.15;100128.30;118407;1147;104575;-69
2020/12/26 02:35:48;;;;;;;8.63;4.40;;;;;;;1.87;69.91;100123.03;118831;1147;104528;-69
2020/12/26 02:38:18;;;;;;;7.33;3.97;;;;;;;1.90;70.89;100128.08;118896;1147;104582;-69
2020/12/26 02:40:48;;;;;;;7.10;4.27;;;;;;;1.93;70.40;100133.16;118844;1147;104547;-69
2020/12/26 02:43:21;;;;;;;7.03;4.17;;;;;;;1.94;70.45;100129.59;118846;1147;104624;-70
2020/12/26 02:45:50;;;;;;;8.20;4.70;;;;;;;1.99;70.73;100131.08;118768;1147;104595;-71
2020/12/26 02:48:19;;;;;;;8.03;4.67;;;;;;;2.01;70.40;100144.97;118435;1147;104479;-69
2020/12/26 02:50:47;;;;;;;7.50;4.90;;;;;;;2.02;70.53;100136.98;118456;1147;104555;-69
2020/12/26 02:53:16;;;;;;;9.10;4.40;;;;;;;2.02;70.80;100141.38;118651;1147;104622;-70
2020/12/26 02:55:44;;;;;;;9.67;4.83;;;;;;;2.05;71.43;100146.45;118478;1147;104593;-69
2020/12/26 02:58:13;;;;;;;7.43;4.50;;;;;;;2.05;71.27;100149.92;118358;1147;104469;-69
2020/12/26 03:00:42;;;;;;;10.67;6.50;;;;;;;2.07;69.72;100155.09;118737;1148;104476;-69
2020/12/26 03:03:10;;;;;;;11.97;6.43;;;;;;;2.07;70.80;100155.92;118838;1148;104615;-69
2020/12/26 03:05:38;;;;;;;7.53;4.93;;;;;;;2.07;70.00;100149.83;118667;1148;104507;-69
2020/12/26 03:08:06;;;;;;;12.85;6.70;;;;;;;2.05;70.37;100144.66;118562;1147;104604;-70
2020/12/26 03:10:35;;;;;;;16.55;9.30;;;;;;;2.08;70.18;100146.23;118312;1147;104476;-70
2020/12/26 03:13:03;;;;;;;9.10;5.43;;;;;;;2.08;70.33;100146.23;118177;1147;104610;-70
2020/12/26 03:15:31;;;;;;;10.10;6.05;;;;;;;2.08;71.16;100143.59;118565;1147;104524;-69
2020/12/26 03:18:00;;;;;;;9.53;6.00;;;;;;;2.07;71.14;100147.19;118694;1147;104662;-68
2020/12/26 03:20:28;;;;;;;10.57;6.43;;;;;;;2.07;69.82;100149.83;118670;1147;104594;-70
2020/12/26 03:22:56;;;;;;;7.23;4.70;;;;;;;2.06;70.50;100148.98;118695;1147;104659;-69
2020/12/26 03:25:24;;;;;;;11.73;6.80;;;;;;;2.05;70.55;100156.98;118817;1147;104630;-70
2020/12/26 03:27:52;;;;;;;8.80;5.05;;;;;;;2.03;69.75;100149.17;118759;1147;104590;-69
2020/12/26 03:30:20;;;;;;;6.93;4.40;;;;;;;2.04;69.70;100150.02;118748;1147;104464;-69
2020/12/26 03:32:49;;;;;;;7.23;4.17;;;;;;;2.04;71.18;100144.75;118483;1147;104615;-70
2020/12/26 03:35:17;;;;;;;6.47;4.07;;;;;;;2.06;69.81;100148.13;118823;1148;104589;-70
2020/12/26 03:37:45;;;;;;;6.17;4.23;;;;;;;2.07;69.86;100147.19;118883;1147;104551;-70
2020/12/26 03:40:14;;;;;;;5.80;3.75;;;;;;;2.10;69.53;100144.37;118839;1147;104454;-69
2020/12/26 03:42:42;;;;;;;6.03;4.03;;;;;;;2.08;70.21;100147.09;118826;1147;104903;-69
2020/12/26 03:45:10;;;;;;;10.73;6.13;;;;;;;2.06;70.00;100150.75;118736;1147;104613;-70
2020/12/26 03:47:38;;;;;;;10.67;5.73;;;;;;;2.04;70.56;100153.52;118701;1147;104469;-70
2020/12/26 03:50:06;;;;;;;7.95;4.70;;;;;;;2.05;69.39;100147.28;118307;1147;106108;-70
2020/12/26 03:52:34;;;;;;;11.23;5.70;;;;;;;2.04;71.00;100160.54;118765;1147;104645;-70
2020/12/26 03:55:03;;;;;;;13.73;6.20;;;;;;;2.03;69.50;100159.70;118666;1148;104553;-70
2020/12/26 03:57:31;;;;;;;8.63;4.70;;;;;;;2.05;70.69;100157.81;118881;1147;104867;-70
2020/12/26 03:59:59;;;;;;;6.85;4.80;;;;;;;2.07;69.56;100160.35;118817;1148;104545;-70
2020/12/26 04:02:27;;;;;;;10.77;5.60;;;;;;;2.07;70.13;100157.72;118847;1147;104595;-70
2020/12/26 04:04:55;;;;;;;8.57;4.63;;;;;;;2.05;70.07;100156.98;118441;1147;104679;-71
2020/12/26 04:07:23;;;;;;;7.27;4.40;;;;;;;2.05;70.45;100156.98;118355;1148;104821;-70
2020/12/26 04:09:52;;;;;;;17.90;7.50;;;;;;;2.05;69.83;100159.61;118460;1147;104550;-70
2020/12/26 04:12:20;;;;;;;9.63;4.87;;;;;;;2.06;69.61;100167.41;118465;1147;104616;-70
2020/12/26 04:14:48;;;;;;;7.37;4.90;;;;;;;2.07;70.36;100162.98;118506;1147;104594;-70
2020/12/26 04:17:16;;;;;;;5.75;4.00;;;;;;;2.10;71.08;100162.80;118557;1147;104587;-70
2020/12/26 04:19:45;;;;;;;7.45;4.60;;;;;;;2.10;69.78;100162.80;118849;1147;104912;-70
2020/12/26 04:22:13;;;;;;;6.93;4.60;;;;;;;2.10;70.25;100165.42;118833;1147;104551;-70
2020/12/26 04:24:41;;;;;;;6.63;4.37;;;;;;;2.09;69.87;100161.09;118811;1147;104555;-69
2020/12/26 04:27:09;;;;;;;5.80;3.90;;;;;;;2.10;71.08;100157.53;118785;1147;104465;-70
2020/12/26 04:29:37;;;;;;;5.90;4.30;;;;;;;2.07;69.55;100160.35;118816;1148;104477;-70
2020/12/26 04:32:06;;;;;;;6.60;4.10;;;;;;;2.09;70.28;100161.09;118843;1148;104519;-69
2020/12/26 04:34:34;;;;;;;6.20;4.07;;;;;;;2.09;69.67;100158.46;118657;1147;104681;-70
2020/12/26 04:37:02;;;;;;;9.20;5.15;;;;;;;2.10;69.76;100170.69;118273;1148;104500;-69
2020/12/26 04:39:30;;;;;;;8.33;4.33;;;;;;;2.09;70.06;100169.82;118352;1147;104465;-70
2020/12/26 04:41:58;;;;;;;6.13;4.17;;;;;;;2.07;70.44;100166.45;118718;1148;104477;-69
2020/12/26 04:44:27;;;;;;;5.57;3.97;;;;;;;2.03;70.30;100166.77;118792;1148;104550;-70
2020/12/26 04:46:57;;;;;;;6.10;4.00;;;;;;;2.01;69.50;100171.28;118776;1147;104658;-69
2020/12/26 04:49:30;;;;;;;7.37;4.23;;;;;;;1.93;70.99;100177.05;118733;1147;104525;-70
2020/12/26 04:52:03;;;;;;;8.60;5.03;;;;;;;1.91;71.02;100186.83;118623;1147;104592;-69
2020/12/26 04:54:40;;;;;;;7.20;4.50;;;;;;;1.86;70.47;100181.02;118843;1147;104506;-69
2020/12/26 04:57:11;;;;;;;5.70;4.00;;;;;;;1.83;69.91;100189.09;118832;1147;104479;-70
2020/12/26 04:59:39;;;;;;;7.30;4.40;;;;;;;1.79;70.29;100191.10;118864;1147;104492;-69
2020/12/26 05:02:13;;;;;;;5.90;4.00;;;;;;;1.78;70.89;100185.93;118911;1148;104567;-70
2020/12/26 05:04:42;;;;;;;6.40;4.73;;;;;;;1.75;70.38;100193.08;118742;1147;104906;-70
2020/12/26 05:07:11;;;;;;;7.33;4.30;;;;;;;1.76;71.11;100184.23;118387;1147;104553;-69
2020/12/26 05:09:39;;;;;;;6.23;3.90;;;;;;;1.78;71.08;100196.45;118659;1148;104514;-69
2020/12/26 05:12:07;;;;;;;5.65;4.00;;;;;;;1.76;70.18;100191.28;118888;1148;104599;-69
2020/12/26 05:14:35;;;;;;;6.17;4.07;;;;;;;1.74;70.80;100186.12;118623;1147;104473;-69
2020/12/26 05:17:03;;;;;;;6.33;4.63;;;;;;;1.74;70.46;100190.55;118733;1147;104531;-69
2020/12/26 05:19:32;;;;;;;5.60;4.40;;;;;;;1.77;71.02;100187.70;118805;1147;104545;-70
2020/12/26 05:22:00;;;;;;;75.53;32.17;;;;;;;1.80;71.09;100190.14;118496;1147;104679;-69
2020/12/26 05:24:28;;;;;;;48.80;16.25;;;;;;;1.83;70.81;100182.06;118667;1147;104953;-70
2020/12/26 05:26:56;;;;;;;51.23;21.23;;;;;;;1.83;70.70;100194.35;118573;1147;104627;-70
2020/12/26 05:29:24;;;;;;;61.27;22.90;;;;;;;1.80;70.70;100195.41;118342;1147;104513;-69
2020/12/26 05:31:55;;;;;;;299.40;99.60;;;;;;;1.86;70.67;100200.27;118765;1147;104560;-70
2020/12/26 05:34:32;;;;;;;252.90;91.55;;;;;;;1.89;69.97;100202.71;118814;1147;104473;-70
2020/12/26 05:37:01;;;;;;;105.43;36.00;;;;;;;1.93;69.91;100209.46;118985;1147;104550;-70
2020/12/26 05:39:30;;;;;;;214.60;93.20;;;;;;;1.98;70.69;100203.05;118874;1147;104858;-69
2020/12/26 05:41:59;;;;;;;116.65;46.95;;;;;;;1.99;70.51;100199.49;118775;1148;104476;-70
2020/12/26 05:44:30;;;;;;;61.63;25.93;;;;;;;1.95;70.78;100210.20;118835;1147;104560;-69
2020/12/26 05:47:00;;;;;;;50.63;24.07;;;;;;;1.94;70.37;100211.16;118659;1147;104450;-69
2020/12/26 05:49:33;;;;;;;28.97;12.97;;;;;;;1.96;70.29;100211.91;118354;1148;104548;-69
2020/12/26 05:52:07;;;;;;;48.30;26.43;;;;;;;1.99;70.55;100215.28;118475;1147;104560;-70
2020/12/26 05:54:36;;;;;;;21.63;11.00;;;;;;;1.98;70.36;100214.41;118612;1147;104458;-70
2020/12/26 05:57:10;;;;;;;14.93;8.87;;;;;;;1.98;70.30;100219.67;118488;1147;104566;-70
2020/12/26 05:59:39;;;;;;;19.50;11.27;;;;;;;1.98;69.88;100226.73;118414;1147;104495;-70
2020/12/26 06:02:25;;;;;;;28.27;12.53;;;;;;;1.98;70.28;100221.47;118486;1147;104714;-70
2020/12/26 06:04:56;;;;;;;122.13;52.10;;;;;;;1.92;70.42;100234.07;118781;1147;104549;-70
2020/12/26 06:07:26;;;;;;;50.27;21.77;;;;;;;1.87;70.36;100223.02;118702;1147;104481;-69
2020/12/26 06:09:57;;;;;;;121.97;64.53;;;;;;;1.88;70.93;100224.69;118442;1147;104470;-70
2020/12/26 06:12:27;;;;;;;66.80;29.00;;;;;;;1.90;69.71;100222.80;118808;1148;104567;-69
2020/12/26 06:14:56;;;;;;;173.20;75.70;;;;;;;1.88;69.69;100235.21;118433;1147;104476;-69
2020/12/26 06:17:27;;;;;;;66.43;28.77;;;;;;;1.88;70.67;100232.58;118727;1147;104457;-69
2020/12/26 06:20:01;;;;;;;45.90;18.95;;;;;;;1.88;70.18;100235.21;118563;1147;104559;-70
2020/12/26 06:22:49;;;;;;;34.95;15.95;;;;;;;1.88;69.95;100229.95;118698;1147;104556;-69
2020/12/26 06:25:19;;;;;;;49.57;21.17;;;;;;;1.89;69.72;100239.55;118801;1147;104545;-69
2020/12/26 06:27:59;;;;;;;38.55;20.40;;;;;;;1.90;70.55;100235.12;118774;1147;104469;-70
2020/12/26 06:30:28;;;;;;;38.13;16.47;;;;;;;1.88;69.95;100235.21;118521;1148;104479;-71
2020/12/26 06:32:57;;;;;;;21.03;10.00;;;;;;;1.89;69.20;100249.23;118861;1147;104724;-70
2020/12/26 06:35:28;;;;;;;15.37;7.37;;;;;;;1.87;70.49;100246.70;119013;1147;104570;-69
2020/12/26 06:38:14;;;;;;;14.00;7.05;;;;;;;1.86;69.71;100247.63;120023;1148;104477;-69
2020/12/26 06:40:59;;;;;;;117.13;60.07;;;;;;;1.86;69.57;100249.42;118414;1148;104550;-70
2020/12/26 06:43:47;;;;;;;59.30;27.90;;;;;;;1.87;70.70;100254.59;118556;1148;104778;-69
2020/12/26 06:46:39;;;;;;;26.13;13.40;;;;;;;1.90;70.80;100256.17;118805;1147;104541;-69
2020/12/26 06:49:23;;;;;;;25.40;13.40;;;;;;;1.91;70.26;100261.34;118301;1148;104562;-69
2020/12/26 06:51:52;;;;;;;22.45;12.55;;;;;;;1.90;71.45;100264.90;118748;1147;104550;-70
2020/12/26 06:54:41;;;;;;;20.37;13.60;;;;;;;1.89;71.32;100259.77;118873;1148;104592;-69
2020/12/26 06:57:09;;;;;;;32.40;19.45;;;;;;;1.89;70.10;100265.02;118872;1148;104568;-71
2020/12/26 06:59:37;;;;;;;119.05;70.85;;;;;;;1.91;71.20;100271.87;118373;1148;104544;-69
2020/12/26 07:02:10;;;;;;;42.05;21.80;;;;;;;1.92;70.02;100267.44;118280;1148;104454;-69
2020/12/26 07:04:40;;;;;;;83.80;53.60;;;;;;;1.96;70.80;100269.80;118396;1148;104632;-69
2020/12/26 07:07:11;;;;;;;72.07;46.10;;;;;;;2.04;70.60;100276.34;118850;1147;104540;-69
2020/12/26 07:09:47;;;;;;;43.87;27.13;;;;;;;2.08;70.40;100269.93;118845;1147;104480;-69
2020/12/26 07:12:15;;;;;;;36.17;22.23;;;;;;;2.09;70.09;100282.16;118837;1148;104553;-69
2020/12/26 07:14:45;;;;;;;74.93;34.23;;;;;;;2.10;70.90;100276.81;118841;1147;104601;-69
2020/12/26 07:17:27;;;;;;;49.90;29.67;;;;;;;2.11;70.08;100280.28;118238;1148;104507;-70
2020/12/26 07:19:58;;;;;;;28.60;17.10;;;;;;;2.12;71.73;100284.61;118395;1147;104927;-69
2020/12/26 07:22:28;;;;;;;28.27;19.43;;;;;;;2.16;70.67;100286.10;118004;1147;104508;-69
2020/12/26 07:25:00;;;;;;;25.23;17.90;;;;;;;2.17;70.07;100277.25;118736;1147;104576;-69
2020/12/26 07:27:30;;;;;;;17.57;12.53;;;;;;;2.15;71.62;100279.13;118314;1148;104528;-69
2020/12/26 07:30:20;;;;;;;76.87;43.63;;;;;;;2.15;71.59;100287.86;118351;1147;104473;-69
2020/12/26 07:32:53;;;;;;;34.77;20.27;;;;;;;2.20;71.44;100289.38;118341;1147;104482;-69
2020/12/26 07:35:42;;;;;;;20.40;13.03;;;;;;;2.19;71.07;100301.68;118398;1147;104610;-69
2020/12/26 07:38:16;;;;;;;16.30;11.65;;;;;;;2.13;70.54;100296.81;118613;1147;104483;-70
2020/12/26 07:40:46;;;;;;;17.00;11.40;;;;;;;2.08;70.17;100310.28;118529;1147;104479;-70
2020/12/26 07:43:16;;;;;;;20.67;14.90;;;;;;;2.10;69.82;100307.56;118854;1148;104531;-69
2020/12/26 07:45:47;;;;;;;22.63;16.93;;;;;;;2.11;70.05;100309.23;118669;1147;104473;-70
2020/12/26 07:48:15;;;;;;;38.30;26.33;;;;;;;2.14;71.52;100306.41;118474;1148;104630;-69
2020/12/26 07:50:44;;;;;;;21.27;14.63;;;;;;;2.18;71.08;100304.44;118649;1148;104537;-69
2020/12/26 07:53:13;;;;;;;38.07;25.20;;;;;;;2.20;70.26;100302.55;118798;1147;104471;-70
2020/12/26 07:55:41;;;;;;;29.77;20.07;;;;;;;2.21;71.34;100304.22;118902;1146;104601;-71
2020/12/26 07:58:12;;;;;;;44.23;27.63;;;;;;;2.22;69.88;100306.76;118692;1148;104450;-69
2020/12/26 08:00:41;;;;;;;58.07;36.83;;;;;;;2.31;71.26;100311.44;118441;1147;104550;-69
2020/12/26 08:03:11;;;;;;;64.37;40.73;;;;;;;2.42;70.75;100321.27;118754;1147;104533;-70
2020/12/26 08:05:40;;;;;;;73.80;48.67;;;;;;;2.51;71.04;100307.50;118937;1147;104647;-70
2020/12/26 08:08:16;;;;;;;69.80;46.53;;;;;;;2.58;69.84;100320.27;118850;1147;104572;-69
2020/12/26 08:10:44;;;;;;;57.63;39.50;;;;;;;2.59;70.65;100320.17;118853;1147;104550;-70
2020/12/26 08:13:16;;;;;;;36.27;25.43;;;;;;;2.58;70.98;100323.77;118862;1147;104476;-70
2020/12/26 08:15:44;;;;;;;19.23;13.98;;;;;;;2.53;69.74;100325.84;118809;1147;104559;-70
2020/12/26 08:18:19;;;;;;;17.10;11.63;;;;;;;2.55;70.61;100337.12;118797;1147;104530;-70
2020/12/26 08:20:48;;;;;;;35.37;23.97;;;;;;;2.57;71.01;100340.50;118833;1147;104969;-70
2020/12/26 08:23:16;;;;;;;38.20;26.05;;;;;;;2.58;70.69;100347.48;118865;1148;104473;-70
2020/12/26 08:25:44;;;;;;;46.43;31.47;;;;;;;2.59;69.74;100341.25;118811;1147;104569;-70
2020/12/26 08:28:18;;;;;;;32.27;21.33;;;;;;;2.57;71.35;100343.14;118896;1148;104858;-70
2020/12/26 08:30:54;;;;;;;19.37;14.23;;;;;;;2.55;70.91;100355.56;118754;1147;104486;-70
2020/12/26 08:33:30;;;;;;;29.25;17.50;;;;;;;2.53;70.30;100352.19;118456;1147;104554;-69
2020/12/26 08:36:08;;;;;;;23.43;15.03;;;;;;;2.53;71.43;100352.19;118403;1148;104602;-70
2020/12/26 08:38:44;;;;;;;34.97;23.50;;;;;;;2.55;71.60;100351.13;118487;1147;104565;-70
2020/12/26 08:41:16;;;;;;;64.50;37.10;;;;;;;2.60;70.36;100357.89;118819;1147;104550;-69
2020/12/26 08:43:45;;;;;;;47.77;26.93;;;;;;;2.62;71.11;100356.00;118435;1148;104473;-69
2020/12/26 08:46:14;;;;;;;25.77;14.60;;;;;;;2.60;71.11;100369.30;118396;1146;104640;-70
2020/12/26 08:48:43;;;;;;;30.80;17.83;;;;;;;2.61;70.00;100365.70;118810;1148;104924;-69
2020/12/26 08:51:21;;;;;;;23.17;14.67;;;;;;;2.61;71.49;100368.33;118668;1147;105565;-69
2020/12/26 08:53:51;;;;;;;33.87;21.60;;;;;;;2.64;70.49;100376.05;118823;1147;104566;-69
2020/12/26 08:56:34;;;;;;;31.33;20.77;;;;;;;2.57;70.95;100372.11;118611;1148;104625;-69
2020/12/26 08:59:02;;;;;;;27.53;17.00;;;;;;;2.53;71.05;100376.73;118821;1147;104546;-69
2020/12/26 09:01:31;;;;;;;24.85;14.40;;;;;;;2.51;69.99;100372.52;118643;1147;104538;-70
2020/12/26 09:03:59;;;;;;;31.57;20.33;;;;;;;2.49;70.30;100382.30;118627;1147;104479;-69
2020/12/26 09:06:35;;;;;;;32.20;21.93;;;;;;;2.43;70.62;100388.80;118580;1148;104932;-69
2020/12/26 09:09:15;;;;;;;24.35;15.20;;;;;;;2.39;70.94;100387.31;118867;1147;104894;-69
2020/12/26 09:11:44;;;;;;;33.10;22.70;;;;;;;2.51;71.64;100398.85;118854;1148;104449;-69
2020/12/26 09:14:21;;;;;;;20.50;13.65;;;;;;;2.59;70.72;100404.47;118867;1147;104900;-69
2020/12/26 09:16:57;;;;;;;43.70;28.33;;;;;;;2.61;71.06;100405.22;118860;1147;104642;-69
2020/12/26 09:19:26;;;;;;;33.27;20.07;;;;;;;2.71;70.79;100403.70;118777;1147;104504;-69
2020/12/26 09:22:08;;;;;;;59.85;37.10;;;;;;;2.75;70.74;100404.32;118798;1147;104553;-69
2020/12/26 09:24:35;;;;;;;;;;;;;;;2.70;71.17;100412.53;118853;1147;104471;-70
2020/12/26 09:27:04;;;;;;;32.90;17.33;;;;;;;2.65;69.55;100408.50;118513;1147;104601;-69
2020/12/26 09:29:32;;;;;;;43.37;28.47;;;;;;;2.57;70.01;100408.99;118392;1148;104556;-70
2020/12/26 09:32:09;;;;;;;39.27;22.87;;;;;;;2.51;70.39;100404.13;118912;1147;104455;-69
2020/12/26 09:34:37;;;;;;;43.40;25.33;;;;;;;2.49;69.79;100404.22;118398;1148;104477;-69
2020/12/26 09:37:07;;;;;;;34.65;18.55;;;;;;;2.54;69.63;100411.81;118430;1148;104620;-70
2020/12/26 09:39:36;;;;;;;22.67;12.83;;;;;;;2.61;69.30;100415.75;118683;1147;104607;-70
2020/12/26 09:42:05;;;;;;;25.00;14.75;;;;;;;2.62;69.41;100409.55;118874;1147;104479;-70
2020/12/26 09:44:33;;;;;;;57.53;31.07;;;;;;;2.64;70.32;100417.36;118418;1148;104548;-69
2020/12/26 09:47:03;;;;;;;22.80;12.33;;;;;;;2.66;69.75;100418.11;118420;1148;104937;-69
2020/12/26 09:49:31;;;;;;;19.70;11.10;;;;;;;2.68;69.86;100414.42;118835;1148;104660;-70
2020/12/26 09:51:59;;;;;;;23.53;12.53;;;;;;;2.69;70.01;100417.89;118865;1147;104521;-70
2020/12/26 09:54:27;;;;;;;18.03;11.30;;;;;;;2.69;69.70;100416.09;118364;1148;104468;-70
2020/12/26 09:56:57;;;;;;;20.85;12.15;;;;;;;2.75;69.89;100410.45;118407;1148;104608;-71
2020/12/26 09:59:25;;;;;;;30.87;18.03;;;;;;;2.79;69.02;100410.24;118823;1147;104598;-70
2020/12/26 10:01:53;;;;;;;23.47;13.53;;;;;;;2.83;69.85;100404.69;118480;1148;104476;-70
2020/12/26 10:04:21;;;;;;;32.77;21.07;;;;;;;2.87;69.02;100407.98;118451;1147;104503;-70
2020/12/26 10:06:49;;;;;;;22.80;13.80;;;;;;;2.91;70.60;100409.47;118864;1147;104607;-70
2020/12/26 10:09:17;;;;;;;19.30;11.13;;;;;;;2.98;69.63;100405.45;118354;1148;104548;-70
2020/12/26 10:11:45;;;;;;;29.50;19.70;;;;;;;3.05;69.59;100401.48;118797;1147;104550;-71
2020/12/26 10:14:13;;;;;;;13.90;8.35;;;;;;;3.06;69.01;100411.09;118903;1148;104859;-70
2020/12/26 10:16:44;;;;;;;15.80;9.47;;;;;;;3.04;69.49;100412.98;118807;1146;104551;-70
2020/12/26 10:19:12;;;;;;;10.60;7.00;;;;;;;3.01;68.16;100405.27;118797;1148;104660;-70
2020/12/26 10:21:40;;;;;;;34.73;18.73;;;;;;;2.98;69.76;100416.00;118825;1148;104538;-70
2020/12/26 10:24:08;;;;;;;30.55;17.20;;;;;;;3.00;69.47;100414.11;118868;1147;104551;-70
2020/12/26 10:26:36;;;;;;;20.30;9.87;;;;;;;3.05;69.68;100416.45;118867;1147;104656;-69
2020/12/26 10:29:04;;;;;;;25.43;14.27;;;;;;;3.09;69.34;100426.69;118832;1147;104593;-69
2020/12/26 10:31:33;;;;;;;27.97;17.20;;;;;;;3.14;68.95;100419.33;118861;1147;104562;-70
2020/12/26 10:34:01;;;;;;;25.17;12.87;;;;;;;3.19;69.90;100418.18;118864;1147;104454;-70
2020/12/26 10:36:29;;;;;;;40.50;22.20;;;;;;;3.27;68.52;100415.88;118903;1147;104479;-69
2020/12/26 10:38:57;;;;;;;22.27;10.87;;;;;;;3.34;68.93;100419.80;118826;1147;104643;-70
2020/12/26 10:41:25;;;;;;;16.60;10.87;;;;;;;3.36;68.78;100417.06;118839;1147;104453;-69
2020/12/26 10:43:53;;;;;;;20.93;11.17;;;;;;;3.38;68.66;100401.98;117909;1148;104470;-70
2020/12/26 10:46:21;;;;;;;20.17;11.73;;;;;;;3.46;69.18;100411.05;118612;1147;104536;-69
2020/12/26 10:48:50;;;;;;;40.87;26.13;;;;;;;3.56;68.72;100420.98;118829;1148;104462;-69
2020/12/26 10:51:18;;;;;;;17.47;9.53;;;;;;;3.58;68.04;100400.61;118825;1148;104553;-69
2020/12/26 10:53:46;;;;;;;29.23;20.10;;;;;;;3.68;68.59;100410.45;118842;1147;104476;-69
2020/12/26 10:56:14;;;;;;;12.20;7.90;;;;;;;3.75;67.40;100405.58;118903;1147;104660;-69
2020/12/26 10:58:42;;;;;;;10.30;6.53;;;;;;;3.65;68.73;100410.64;118796;1148;104555;-69
2020/12/26 11:01:10;;;;;;;16.20;8.40;;;;;;;3.54;68.37;100408.75;118644;1147;104490;-69
2020/12/26 11:03:39;;;;;;;9.23;5.23;;;;;;;3.45;67.34;100406.73;118750;1147;104478;-69
2020/12/26 11:06:09;;;;;;;22.43;13.07;;;;;;;3.39;68.56;100409.80;118745;1147;104556;-69
2020/12/26 11:08:38;;;;;;;19.77;11.00;;;;;;;3.40;68.36;100410.63;118634;1148;104476;-69
2020/12/26 11:11:06;;;;;;;9.63;6.33;;;;;;;3.40;68.79;100421.18;118567;1147;104555;-70
2020/12/26 11:13:35;;;;;;;10.33;5.83;;;;;;;3.36;68.53;100423.17;118845;1147;104521;-69
2020/12/26 11:16:03;;;;;;;7.77;5.47;;;;;;;3.33;68.27;100418.95;118874;1147;104618;-69
2020/12/26 11:18:31;;;;;;;10.43;6.10;;;;;;;3.33;68.42;100418.12;118901;1147;104495;-69
2020/12/26 11:20:59;;;;;;;10.93;5.50;;;;;;;3.27;68.32;100432.56;118794;1148;104544;-69
2020/12/26 11:23:27;;;;;;;7.87;4.90;;;;;;;3.21;68.72;100411.84;118823;1148;104463;-70